Time;durP1;ratioP1;P1;durP2;ratioP2;P2;SDS_P1;SDS_P2;PMS_P1;PMS_P2;Temp;Humidity;BMP_temperature;BMP_pressure;BME280_temperature;BME280_humidity;BME280_pressure;Samples;Min_cycle;Max_cycle;Signal;HPM_P1;HPM_P2
2022/09/24 01:17:32;;;;;;;1999.90;999.90;;;;;;;;;;5141540;22;20252;-67
2022/09/24 01:20:28;;;;;;;1999.90;999.90;;;;;;;;;;5053630;28;20229;-63
2022/09/24 01:23:20;;;;;;;1999.90;999.90;;;;;;;;;;5055867;28;20213;-65
2022/09/24 01:26:17;;;;;;;1999.90;999.90;;;;;;;;;;5048811;28;20359;-66
2022/09/24 01:29:05;;;;;;;1999.90;999.90;;;;;;;;;;5053713;28;20204;-67
2022/09/24 01:31:53;;;;;;;1999.90;999.90;;;;;;;;;;5052827;28;20408;-67
2022/09/24 01:34:40;;;;;;;1999.90;999.90;;;;;;;;;;5055405;28;20462;-68
2022/09/24 01:37:27;;;;;;;1999.90;999.90;;;;;;;;;;5045311;28;20210;-64
2022/09/24 01:40:12;;;;;;;1999.90;999.90;;;;;;;;;;5037586;28;20217;-67
2022/09/24 01:42:58;;;;;;;1999.90;999.90;;;;;;;;;;5037823;28;20298;-67
2022/09/24 01:45:43;;;;;;;1999.90;999.90;;;;;;;;;;5037711;28;20256;-67
2022/09/24 01:48:31;;;;;;;1999.90;999.90;;;;;;;;;;5041529;28;20209;-67
2022/09/24 01:51:18;;;;;;;1999.90;999.90;;;;;;;;;;5051994;28;20283;-67
2022/09/24 01:54:05;;;;;;;1999.90;999.90;;;;;;;;;;5034157;28;20704;-67
2022/09/24 01:56:52;;;;;;;1999.90;999.90;;;;;;;;;;5037348;28;20360;-67
2022/09/24 01:59:39;;;;;;;1999.90;999.90;;;;;;;;;;5049158;28;20283;-66
2022/09/24 02:02:27;;;;;;;1999.90;999.90;;;;;;;;;;5051845;28;20206;-67
2022/09/24 02:05:18;;;;;;;1999.90;999.90;;;;;;;;;;5051403;28;20336;-66
2022/09/24 02:08:05;;;;;;;1999.90;999.90;;;;;;;;;;5050012;28;20216;-67
2022/09/24 02:10:52;;;;;;;1999.90;999.90;;;;;;;;;;5051699;28;20220;-67
2022/09/24 02:13:40;;;;;;;1999.90;999.90;;;;;;;;;;5051364;28;20208;-67
2022/09/24 02:16:28;;;;;;;1999.90;999.90;;;;;;;;;;5050880;28;20785;-67
2022/09/24 02:19:14;;;;;;;1999.90;999.90;;;;;;;;;;5051095;28;20860;-67
2022/09/24 02:22:00;;;;;;;1999.90;999.90;;;;;;;;;;5051667;28;20213;-65
2022/09/24 02:24:46;;;;;;;1999.90;999.90;;;;;;;;;;5050535;28;20690;-67
2022/09/24 02:27:31;;;;;;;1999.90;999.90;;;;;;;;;;5041221;28;20588;-67
2022/09/24 02:30:16;;;;;;;1999.90;999.90;;;;;;;;;;5032757;28;20197;-67
2022/09/24 02:34:19;;;;;;;1999.90;999.90;;;;;;;;;;5043192;28;20370;-67
2022/09/24 02:36:06;;;;;;;1999.90;999.90;;;;;;;;;;5049436;28;20227;-67
2022/09/24 02:38:52;;;;;;;1999.90;999.90;;;;;;;;;;5043698;28;20387;-67
2022/09/24 02:41:38;;;;;;;1999.90;999.90;;;;;;;;;;5051899;28;20205;-67
2022/09/24 02:44:23;;;;;;;1999.90;999.90;;;;;;;;;;5049257;28;20311;-67
2022/09/24 02:47:08;;;;;;;1999.90;999.90;;;;;;;;;;5051550;28;20304;-67
2022/09/24 02:49:54;;;;;;;1999.90;999.90;;;;;;;;;;5048559;28;20341;-67
2022/09/24 02:52:39;;;;;;;1999.90;999.90;;;;;;;;;;5052826;28;20277;-68
2022/09/24 02:55:26;;;;;;;1999.90;999.90;;;;;;;;;;5041107;28;20273;-67
2022/09/24 02:58:11;;;;;;;1999.90;999.90;;;;;;;;;;5060299;28;20331;-67
2022/09/24 03:00:56;;;;;;;1999.90;999.90;;;;;;;;;;5052859;28;20303;-67
2022/09/24 03:03:41;;;;;;;1999.90;999.90;;;;;;;;;;5052395;28;20217;-67
2022/09/24 03:06:26;;;;;;;1999.90;999.90;;;;;;;;;;5033065;28;20253;-67
2022/09/24 03:09:11;;;;;;;1999.90;999.90;;;;;;;;;;5052089;28;20330;-67
2022/09/24 03:11:59;;;;;;;1999.90;999.90;;;;;;;;;;5054230;28;20613;-67
2022/09/24 03:14:44;;;;;;;1999.90;999.90;;;;;;;;;;5052668;28;20205;-67
2022/09/24 03:17:29;;;;;;;1999.90;999.90;;;;;;;;;;5055032;28;20706;-66
2022/09/24 03:20:14;;;;;;;1999.90;999.90;;;;;;;;;;5052562;28;20220;-67
2022/09/24 03:22:59;;;;;;;1999.90;999.90;;;;;;;;;;5055935;28;20252;-67
2022/09/24 03:25:44;;;;;;;1999.90;999.90;;;;;;;;;;5052318;28;20421;-67
2022/09/24 03:28:30;;;;;;;1999.90;999.90;;;;;;;;;;5056637;28;20278;-67
2022/09/24 03:31:14;;;;;;;1999.90;999.90;;;;;;;;;;5046797;28;20255;-67
2022/09/24 03:33:59;;;;;;;1999.90;999.90;;;;;;;;;;5054860;28;20200;-67
2022/09/24 03:36:44;;;;;;;1999.90;999.90;;;;;;;;;;5056886;28;20323;-67
2022/09/24 03:39:29;;;;;;;1999.90;999.90;;;;;;;;;;5045642;28;20228;-66
2022/09/24 03:42:14;;;;;;;1999.90;999.90;;;;;;;;;;5058456;28;20351;-66
2022/09/24 03:45:00;;;;;;;1999.90;999.90;;;;;;;;;;5051561;28;20530;-67
2022/09/24 03:47:45;;;;;;;1999.90;999.90;;;;;;;;;;5051748;28;20213;-66
2022/09/24 03:50:30;;;;;;;1999.90;999.90;;;;;;;;;;5032513;28;20213;-67
2022/09/24 03:53:15;;;;;;;1999.90;999.90;;;;;;;;;;5046495;28;20706;-67
2022/09/24 03:56:01;;;;;;;1999.90;999.90;;;;;;;;;;5056303;28;20703;-67
2022/09/24 03:58:47;;;;;;;1999.90;999.90;;;;;;;;;;5052110;28;20283;-67
2022/09/24 04:01:36;;;;;;;1999.90;999.90;;;;;;;;;;5054191;28;20243;-67
2022/09/24 04:04:21;;;;;;;1999.90;999.90;;;;;;;;;;5044093;28;20212;-67
2022/09/24 04:07:06;;;;;;;1999.90;999.90;;;;;;;;;;5055027;28;20236;-67
2022/09/24 04:09:51;;;;;;;1999.90;999.90;;;;;;;;;;5052060;28;20571;-67
2022/09/24 04:12:36;;;;;;;1999.90;999.90;;;;;;;;;;5056244;28;20208;-67
2022/09/24 04:15:22;;;;;;;1999.90;999.90;;;;;;;;;;5035033;28;20269;-67
2022/09/24 04:18:08;;;;;;;1999.90;999.90;;;;;;;;;;5053434;28;20578;-67
2022/09/24 04:20:57;;;;;;;1999.90;999.90;;;;;;;;;;5057284;28;20359;-67
2022/09/24 04:23:42;;;;;;;1999.90;999.90;;;;;;;;;;5051876;28;20832;-67
2022/09/24 04:26:26;;;;;;;1999.90;999.90;;;;;;;;;;5058277;28;20233;-67
2022/09/24 04:29:13;;;;;;;1999.90;999.90;;;;;;;;;;5051504;28;20293;-67
2022/09/24 04:31:58;;;;;;;1999.90;999.90;;;;;;;;;;5040842;28;20209;-67
2022/09/24 04:34:44;;;;;;;1999.90;999.90;;;;;;;;;;5049849;28;20409;-67
2022/09/24 04:37:29;;;;;;;1999.90;999.90;;;;;;;;;;5044980;28;20287;-67
2022/09/24 04:40:15;;;;;;;1999.90;999.90;;;;;;;;;;5053326;28;20232;-68
2022/09/24 04:43:00;;;;;;;1999.90;999.90;;;;;;;;;;5054139;28;20236;-67
2022/09/24 04:45:45;;;;;;;1999.90;999.90;;;;;;;;;;5050326;28;20263;-66
2022/09/24 04:48:30;;;;;;;1999.90;999.90;;;;;;;;;;5044746;28;20197;-67
2022/09/24 04:51:18;;;;;;;1999.90;999.90;;;;;;;;;;5058191;28;20200;-66
2022/09/24 04:54:03;;;;;;;1999.90;999.90;;;;;;;;;;5051492;28;20702;-67
2022/09/24 04:56:48;;;;;;;1999.90;999.90;;;;;;;;;;5050796;28;20233;-67
2022/09/24 04:59:33;;;;;;;1999.90;999.90;;;;;;;;;;5031779;28;20235;-67
2022/09/24 05:02:19;;;;;;;1999.90;999.90;;;;;;;;;;5042898;28;20205;-67
2022/09/24 05:05:04;;;;;;;1999.90;999.90;;;;;;;;;;5047557;28;20205;-67
2022/09/24 05:07:51;;;;;;;1999.90;999.90;;;;;;;;;;5050466;28;20589;-67
2022/09/24 05:10:36;;;;;;;1999.90;999.90;;;;;;;;;;5047715;28;20203;-67
2022/09/24 05:13:21;;;;;;;1999.90;999.90;;;;;;;;;;5043733;28;20217;-65
2022/09/24 05:16:07;;;;;;;1999.90;999.90;;;;;;;;;;5051251;28;20333;-67
2022/09/24 05:18:53;;;;;;;1999.90;999.90;;;;;;;;;;5051319;28;20220;-67
2022/09/24 05:21:38;;;;;;;1999.90;999.90;;;;;;;;;;5052493;28;20719;-67
2022/09/24 05:24:25;;;;;;;1999.90;999.90;;;;;;;;;;5034713;28;20578;-67
2022/09/24 05:27:10;;;;;;;1999.90;999.90;;;;;;;;;;5048424;28;20244;-67
2022/09/24 05:29:55;;;;;;;1999.90;999.90;;;;;;;;;;5051197;28;20217;-64
2022/09/24 05:32:40;;;;;;;1999.90;999.90;;;;;;;;;;5054635;28;20217;-66
2022/09/24 05:35:26;;;;;;;1999.90;999.90;;;;;;;;;;5050260;28;20257;-67
2022/09/24 05:38:11;;;;;;;1999.90;999.90;;;;;;;;;;5046649;28;20217;-67
2022/09/24 05:40:57;;;;;;;1999.90;999.90;;;;;;;;;;5037718;28;20371;-67
2022/09/24 05:43:42;;;;;;;1999.90;999.90;;;;;;;;;;5033429;28;20202;-66
2022/09/24 05:46:28;;;;;;;1999.90;999.90;;;;;;;;;;5048961;28;20380;-66
2022/09/24 05:49:13;;;;;;;1999.90;999.90;;;;;;;;;;5051005;28;20210;-67
2022/09/24 05:51:58;;;;;;;1999.90;999.90;;;;;;;;;;5051275;28;20201;-64
2022/09/24 05:54:43;;;;;;;1999.90;999.90;;;;;;;;;;5047283;28;20250;-67
2022/09/24 05:57:29;;;;;;;1999.90;999.90;;;;;;;;;;5037676;28;20251;-67
2022/09/24 06:00:14;;;;;;;1999.90;999.90;;;;;;;;;;5040983;28;20453;-63
2022/09/24 06:03:04;;;;;;;1999.90;999.90;;;;;;;;;;5048284;28;20633;-66
2022/09/24 06:05:50;;;;;;;1999.90;999.90;;;;;;;;;;5050283;28;20253;-67
2022/09/24 06:08:35;;;;;;;1999.90;999.90;;;;;;;;;;5051971;28;20297;-66
2022/09/24 06:11:21;;;;;;;1999.90;999.90;;;;;;;;;;5051775;28;20196;-67
2022/09/24 06:14:08;;;;;;;1999.90;999.90;;;;;;;;;;5051209;28;20279;-64
2022/09/24 06:16:53;;;;;;;1999.90;999.90;;;;;;;;;;5037466;28;20599;-64
2022/09/24 06:19:39;;;;;;;1999.90;999.90;;;;;;;;;;5039023;28;20291;-60
2022/09/24 06:22:24;;;;;;;1999.90;999.90;;;;;;;;;;5052142;28;20513;-66
2022/09/24 06:25:09;;;;;;;1999.90;999.90;;;;;;;;;;5051921;28;20242;-67
2022/09/24 06:27:59;;;;;;;1999.90;999.90;;;;;;;;;;5051949;28;20200;-67
2022/09/24 06:30:45;;;;;;;1999.90;999.90;;;;;;;;;;5052352;28;20327;-67
2022/09/24 06:33:30;;;;;;;1999.90;999.90;;;;;;;;;;5053275;28;20200;-66
2022/09/24 06:36:15;;;;;;;1999.90;999.90;;;;;;;;;;5052926;28;20750;-67
2022/09/24 06:39:00;;;;;;;1999.90;999.90;;;;;;;;;;5052984;28;20622;-67
2022/09/24 06:41:45;;;;;;;1999.90;999.90;;;;;;;;;;5042664;28;20228;-67
2022/09/24 06:44:33;;;;;;;1999.90;999.90;;;;;;;;;;5041755;28;20216;-66
2022/09/24 06:47:19;;;;;;;1999.90;999.90;;;;;;;;;;5047940;28;20229;-67
2022/09/24 06:50:04;;;;;;;1999.90;999.90;;;;;;;;;;5040167;28;20263;-66
2022/09/24 06:52:49;;;;;;;1999.90;999.90;;;;;;;;;;5036232;28;20276;-67
2022/09/24 06:55:35;;;;;;;1999.90;999.90;;;;;;;;;;5040820;28;20229;-68
2022/09/24 06:58:20;;;;;;;1999.90;999.90;;;;;;;;;;5034772;28;20231;-68
2022/09/24 07:01:06;;;;;;;1999.90;999.90;;;;;;;;;;5044523;28;20217;-68
2022/09/24 07:03:53;;;;;;;1999.90;999.90;;;;;;;;;;5034560;28;20267;-68
2022/09/24 07:09:39;;;;;;;1999.90;999.90;;;;;;;;;;5038309;28;20457;-67
2022/09/24 07:12:24;;;;;;;1999.90;999.90;;;;;;;;;;5032389;28;20205;-65
2022/09/24 07:15:09;;;;;;;1999.90;999.90;;;;;;;;;;5041045;28;20316;-66
2022/09/24 07:17:55;;;;;;;1999.90;999.90;;;;;;;;;;5036687;28;20205;-66
2022/09/24 07:20:41;;;;;;;1999.90;999.90;;;;;;;;;;5040011;28;20343;-68
2022/09/24 07:23:26;;;;;;;1999.90;999.90;;;;;;;;;;5036164;28;20206;-66
2022/09/24 07:26:11;;;;;;;1999.90;999.90;;;;;;;;;;5035621;28;20352;-66
2022/09/24 07:28:56;;;;;;;1999.90;999.90;;;;;;;;;;5046878;28;20675;-68
2022/09/24 07:31:41;;;;;;;1999.90;999.90;;;;;;;;;;5034248;28;20213;-67
2022/09/24 07:34:26;;;;;;;1999.90;999.90;;;;;;;;;;5036029;28;20567;-67
2022/09/24 07:37:12;;;;;;;1999.90;999.90;;;;;;;;;;5040918;28;20248;-68
2022/09/24 07:39:57;;;;;;;1999.90;999.90;;;;;;;;;;5049642;28;20256;-67
2022/09/24 07:42:46;;;;;;;1999.90;999.90;;;;;;;;;;5042841;28;20217;-67
2022/09/24 07:45:31;;;;;;;1999.90;999.90;;;;;;;;;;5035229;28;20738;-67
2022/09/24 07:48:16;;;;;;;1999.90;999.90;;;;;;;;;;5026027;28;20300;-66
2022/09/24 07:51:01;;;;;;;1999.90;999.90;;;;;;;;;;5031490;28;20202;-66
2022/09/24 07:53:47;;;;;;;1999.90;999.90;;;;;;;;;;5031548;28;20631;-67
2022/09/24 07:56:32;;;;;;;1999.90;999.90;;;;;;;;;;5044026;28;20250;-66
2022/09/24 07:59:19;;;;;;;1999.90;999.90;;;;;;;;;;5036772;28;20614;-67
2022/09/24 08:02:07;;;;;;;1999.90;999.90;;;;;;;;;;5032613;28;20225;-67
2022/09/24 08:04:53;;;;;;;1999.90;999.90;;;;;;;;;;5033852;28;20210;-66
2022/09/24 08:07:38;;;;;;;1999.90;999.90;;;;;;;;;;5031311;28;20245;-68
2022/09/24 08:10:25;;;;;;;1999.90;999.90;;;;;;;;;;5037408;28;20730;-65
2022/09/24 08:13:10;;;;;;;1999.90;999.90;;;;;;;;;;5040309;28;20674;-66
2022/09/24 08:15:56;;;;;;;1999.90;999.90;;;;;;;;;;5036313;28;20943;-66
2022/09/24 08:18:42;;;;;;;1999.90;999.90;;;;;;;;;;5032371;28;20208;-66
2022/09/24 08:21:27;;;;;;;1999.90;999.90;;;;;;;;;;5037510;28;20214;-68
2022/09/24 08:24:13;;;;;;;1999.90;999.90;;;;;;;;;;5038339;28;20212;-69
2022/09/24 08:26:59;;;;;;;1999.90;999.90;;;;;;;;;;5040548;28;20233;-68
2022/09/24 08:29:44;;;;;;;1999.90;999.90;;;;;;;;;;5037609;28;20229;-68
2022/09/24 08:32:29;;;;;;;1999.90;999.90;;;;;;;;;;5030029;28;20210;-69
2022/09/24 08:35:15;;;;;;;1999.90;999.90;;;;;;;;;;5037612;28;20259;-67
2022/09/24 08:38:00;;;;;;;1999.90;999.90;;;;;;;;;;5042290;28;20631;-67
2022/09/24 08:40:49;;;;;;;1999.90;999.90;;;;;;;;;;5034702;28;20213;-68
2022/09/24 08:43:43;;;;;;;1999.90;999.90;;;;;;;;;;5044161;28;20213;-67
2022/09/24 08:49:35;;;;;;;1999.90;999.90;;;;;;;;;;5026776;28;20784;-69
2022/09/24 08:52:26;;;;;;;1999.90;999.90;;;;;;;;;;5030933;28;20209;-69
2022/09/24 08:55:13;;;;;;;1999.90;999.90;;;;;;;;;;5033423;28;20284;-68
2022/09/24 08:58:00;;;;;;;1999.90;999.90;;;;;;;;;;5032753;28;20209;-67
2022/09/24 09:00:50;;;;;;;1999.90;999.90;;;;;;;;;;5042354;28;20205;-67
2022/09/24 09:03:36;;;;;;;1999.90;999.90;;;;;;;;;;5042980;28;20335;-68
2022/09/24 09:06:45;;;;;;;1999.90;999.90;;;;;;;;;;5044630;28;20237;-69
2022/09/24 09:09:38;;;;;;;1999.90;999.90;;;;;;;;;;5051725;28;20216;-67
2022/09/24 09:12:25;;;;;;;1999.90;999.90;;;;;;;;;;5034901;28;20221;-68
2022/09/24 09:15:11;;;;;;;1999.90;999.90;;;;;;;;;;5034825;28;20214;-69
2022/09/24 09:17:59;;;;;;;1999.90;999.90;;;;;;;;;;5035743;28;20291;-69
2022/09/24 09:20:45;;;;;;;1999.90;999.90;;;;;;;;;;5052084;28;20348;-69
2022/09/24 09:23:34;;;;;;;1999.90;999.90;;;;;;;;;;5048035;28;20413;-69
2022/09/24 09:26:20;;;;;;;1999.90;999.90;;;;;;;;;;5040576;28;20233;-69
2022/09/24 09:29:05;;;;;;;1999.90;999.90;;;;;;;;;;5035950;28;20209;-69
2022/09/24 09:31:58;;;;;;;1999.90;999.90;;;;;;;;;;5035900;28;20210;-69
2022/09/24 09:34:49;;;;;;;1999.90;999.90;;;;;;;;;;5034046;28;20859;-68
2022/09/24 09:37:37;;;;;;;1999.90;999.90;;;;;;;;;;5046631;28;20618;-68
2022/09/24 09:40:26;;;;;;;1999.90;999.90;;;;;;;;;;5036426;28;20256;-69
2022/09/24 09:43:12;;;;;;;1999.90;999.90;;;;;;;;;;5042067;28;20300;-69
2022/09/24 09:46:07;;;;;;;1999.90;999.90;;;;;;;;;;5051324;28;20233;-69
2022/09/24 09:48:55;;;;;;;1999.90;999.90;;;;;;;;;;5033633;28;20210;-69
2022/09/24 09:51:44;;;;;;;1999.90;999.90;;;;;;;;;;5033586;28;20201;-69
2022/09/24 09:54:35;;;;;;;1999.90;999.90;;;;;;;;;;5043839;28;20209;-68
2022/09/24 09:57:22;;;;;;;1999.90;999.90;;;;;;;;;;5047977;28;20224;-68
2022/09/24 10:00:24;;;;;;;1999.90;999.90;;;;;;;;;;5033637;28;20213;-69
2022/09/24 10:03:21;;;;;;;1999.90;999.90;;;;;;;;;;5035026;28;20261;-69
2022/09/24 10:06:06;;;;;;;1999.90;999.90;;;;;;;;;;5045450;28;20288;-68
2022/09/24 10:08:53;;;;;;;1999.90;999.90;;;;;;;;;;5037595;28;20704;-69
2022/09/24 10:11:38;;;;;;;1999.90;999.90;;;;;;;;;;5038813;28;20742;-69
2022/09/24 10:14:23;;;;;;;1999.90;999.90;;;;;;;;;;5040573;28;20649;-69
2022/09/24 10:17:11;;;;;;;1999.90;999.90;;;;;;;;;;5034484;28;20843;-70
2022/09/24 10:19:56;;;;;;;1999.90;999.90;;;;;;;;;;5033785;28;20209;-69
2022/09/24 10:22:46;;;;;;;1999.90;999.90;;;;;;;;;;5050686;28;20225;-69
2022/09/24 10:25:35;;;;;;;1999.90;999.90;;;;;;;;;;5033312;28;20225;-69
2022/09/24 10:31:24;;;;;;;1999.90;999.90;;;;;;;;;;5049593;28;20421;-70
2022/09/24 10:34:18;;;;;;;1999.90;999.90;;;;;;;;;;5033002;28;20423;-70
2022/09/24 10:37:04;;;;;;;1999.90;999.90;;;;;;;;;;5041884;28;20222;-70
2022/09/24 10:39:57;;;;;;;1999.90;999.90;;;;;;;;;;5036875;28;20214;-70
2022/09/24 10:42:43;;;;;;;1999.90;999.90;;;;;;;;;;5033812;28;20230;-70
2022/09/24 10:45:42;;;;;;;1999.90;999.90;;;;;;;;;;5045752;28;20245;-70
2022/09/24 10:48:31;;;;;;;1999.90;999.90;;;;;;;;;;5047927;28;20218;-69
2022/09/24 10:51:21;;;;;;;1999.90;999.90;;;;;;;;;;5032816;28;20581;-70
2022/09/24 10:54:12;;;;;;;1999.90;999.90;;;;;;;;;;5044974;28;20725;-69
2022/09/24 10:56:57;;;;;;;1999.90;999.90;;;;;;;;;;5041789;28;20233;-70
2022/09/24 10:59:51;;;;;;;1999.90;999.90;;;;;;;;;;5047395;28;20328;-69
2022/09/24 11:02:52;;;;;;;1999.90;999.90;;;;;;;;;;5034676;28;20605;-69
2022/09/24 11:05:39;;;;;;;1999.90;999.90;;;;;;;;;;5047336;28;20224;-69
2022/09/24 11:08:28;;;;;;;1999.90;999.90;;;;;;;;;;5050292;28;20718;-69
2022/09/24 11:11:17;;;;;;;1999.90;999.90;;;;;;;;;;5038079;28;20210;-69
2022/09/24 11:14:12;;;;;;;1999.90;999.90;;;;;;;;;;5038297;28;20312;-70
2022/09/24 11:17:16;;;;;;;1999.90;999.90;;;;;;;;;;5032000;28;20241;-69
2022/09/24 11:20:19;;;;;;;1999.90;999.90;;;;;;;;;;5036473;28;20209;-69
2022/09/24 11:23:25;;;;;;;1999.90;999.90;;;;;;;;;;5033559;28;20982;-69
2022/09/24 11:26:18;;;;;;;1999.90;999.90;;;;;;;;;;5031715;28;20225;-70
2022/09/24 11:29:11;;;;;;;1999.90;999.90;;;;;;;;;;5043562;28;20202;-69
2022/09/24 11:32:05;;;;;;;1999.90;999.90;;;;;;;;;;5031876;28;20561;-69
2022/09/24 11:34:59;;;;;;;1999.90;999.90;;;;;;;;;;5042391;28;20325;-70
2022/09/24 11:37:52;;;;;;;1999.90;999.90;;;;;;;;;;5044822;28;20448;-69
2022/09/24 11:41:01;;;;;;;1999.90;999.90;;;;;;;;;;5031827;28;20194;-69
2022/09/24 11:44:02;;;;;;;1999.90;999.90;;;;;;;;;;5031481;28;20589;-69
2022/09/24 11:46:55;;;;;;;1999.90;999.90;;;;;;;;;;5033131;28;20311;-69
2022/09/24 11:49:46;;;;;;;1999.90;999.90;;;;;;;;;;5035876;28;20202;-69
2022/09/24 11:52:34;;;;;;;1999.90;999.90;;;;;;;;;;5031598;28;20201;-69
2022/09/24 11:55:21;;;;;;;1999.90;999.90;;;;;;;;;;5035567;28;20224;-69
2022/09/24 11:58:11;;;;;;;1999.90;999.90;;;;;;;;;;5049234;28;20563;-70
2022/09/24 12:00:59;;;;;;;1999.90;999.90;;;;;;;;;;5048812;28;20693;-69
2022/09/24 12:03:46;;;;;;;1999.90;999.90;;;;;;;;;;5041470;28;20702;-69
2022/09/24 12:06:33;;;;;;;1999.90;999.90;;;;;;;;;;5039229;28;20221;-70
2022/09/24 12:09:25;;;;;;;1999.90;999.90;;;;;;;;;;5048806;28;20209;-69
2022/09/24 12:12:14;;;;;;;1999.90;999.90;;;;;;;;;;5036159;28;20252;-68
2022/09/24 12:15:01;;;;;;;1999.90;999.90;;;;;;;;;;5048927;28;20209;-68
2022/09/24 12:17:49;;;;;;;1999.90;999.90;;;;;;;;;;5031150;28;20728;-69
2022/09/24 12:20:40;;;;;;;1999.90;999.90;;;;;;;;;;5035527;28;20209;-69
2022/09/24 12:23:28;;;;;;;1999.90;999.90;;;;;;;;;;5041607;28;20224;-69
2022/09/24 12:26:16;;;;;;;1999.90;999.90;;;;;;;;;;5042484;28;20397;-69
2022/09/24 12:35:18;;;;;;;1999.90;999.90;;;;;;;;;;5039078;28;20193;-69
2022/09/24 12:38:05;;;;;;;1999.90;999.90;;;;;;;;;;5035936;28;20317;-69
2022/09/24 12:41:05;;;;;;;1999.90;999.90;;;;;;;;;;5037343;28;20711;-69
2022/09/24 12:43:54;;;;;;;1999.90;999.90;;;;;;;;;;5026059;28;20233;-69
2022/09/24 12:46:40;;;;;;;1999.90;999.90;;;;;;;;;;5038118;28;20226;-69
2022/09/24 12:49:29;;;;;;;1999.90;999.90;;;;;;;;;;5041445;28;20226;-70
2022/09/24 12:52:21;;;;;;;1999.90;999.90;;;;;;;;;;5040972;28;20218;-69
2022/09/24 12:55:17;;;;;;;1999.90;999.90;;;;;;;;;;5044881;28;20217;-70
2022/09/24 12:58:04;;;;;;;1999.90;999.90;;;;;;;;;;5039100;28;20205;-70
2022/09/24 13:00:52;;;;;;;1999.90;999.90;;;;;;;;;;5038638;28;20213;-70
2022/09/24 13:03:38;;;;;;;1999.90;999.90;;;;;;;;;;5042518;28;20275;-69
2022/09/24 13:06:31;;;;;;;1999.90;999.90;;;;;;;;;;5035853;28;20726;-69
2022/09/24 13:09:40;;;;;;;1999.90;999.90;;;;;;;;;;5037551;28;20337;-69
2022/09/24 13:12:31;;;;;;;1999.90;999.90;;;;;;;;;;5033879;28;20223;-68
2022/09/24 13:15:23;;;;;;;1999.90;999.90;;;;;;;;;;5040337;28;20285;-70
2022/09/24 13:18:22;;;;;;;1999.90;999.90;;;;;;;;;;5040440;28;20265;-70
2022/09/24 13:21:09;;;;;;;1999.90;999.90;;;;;;;;;;5042852;28;20696;-69
2022/09/24 13:23:54;;;;;;;1999.90;999.90;;;;;;;;;;5043313;28;20229;-70
2022/09/24 13:26:39;;;;;;;1999.90;999.90;;;;;;;;;;5035460;28;20229;-69
2022/09/24 13:29:25;;;;;;;1999.90;999.90;;;;;;;;;;5028186;28;20727;-70
2022/09/24 13:32:15;;;;;;;1999.90;999.90;;;;;;;;;;5031165;28;20209;-70
2022/09/24 13:35:02;;;;;;;1999.90;999.90;;;;;;;;;;5036583;28;20320;-69
2022/09/24 13:37:50;;;;;;;1999.90;999.90;;;;;;;;;;5043761;28;20221;-69
2022/09/24 13:40:38;;;;;;;1999.90;999.90;;;;;;;;;;5039782;28;20206;-69
2022/09/24 13:43:32;;;;;;;1999.90;999.90;;;;;;;;;;5043110;28;20691;-69
2022/09/24 13:46:18;;;;;;;1999.90;999.90;;;;;;;;;;5034609;28;20229;-69
2022/09/24 13:49:05;;;;;;;1999.90;999.90;;;;;;;;;;5039112;28;20216;-69
2022/09/24 13:51:56;;;;;;;1999.90;999.90;;;;;;;;;;5040677;28;20408;-69
2022/09/24 13:54:47;;;;;;;1999.90;999.90;;;;;;;;;;5048551;28;20198;-69
2022/09/24 13:57:42;;;;;;;1999.90;999.90;;;;;;;;;;5046795;28;20344;-69
2022/09/24 14:00:28;;;;;;;1999.90;999.90;;;;;;;;;;5053131;28;20228;-69
2022/09/24 14:03:19;;;;;;;1999.90;999.90;;;;;;;;;;5054377;28;20307;-70
2022/09/24 14:06:09;;;;;;;1999.90;999.90;;;;;;;;;;5052262;28;20226;-69
2022/09/24 14:08:56;;;;;;;1999.90;999.90;;;;;;;;;;5056028;28;20213;-69
2022/09/24 14:11:49;;;;;;;1999.90;999.90;;;;;;;;;;5054208;28;20209;-69
2022/09/24 14:14:35;;;;;;;1999.90;999.90;;;;;;;;;;5059137;28;20309;-69
2022/09/24 14:17:20;;;;;;;1999.90;999.90;;;;;;;;;;5063571;28;20244;-69
2022/09/24 14:20:06;;;;;;;1999.90;999.90;;;;;;;;;;5051195;28;20320;-68
2022/09/24 14:22:51;;;;;;;1999.90;999.90;;;;;;;;;;5049633;28;20320;-69
2022/09/24 14:25:38;;;;;;;1999.90;999.90;;;;;;;;;;5051261;28;20344;-68
2022/09/24 14:28:24;;;;;;;1999.90;999.90;;;;;;;;;;5051130;28;20209;-70
2022/09/24 14:31:09;;;;;;;1999.90;999.90;;;;;;;;;;5051747;28;20206;-69
2022/09/24 14:33:54;;;;;;;1999.90;999.90;;;;;;;;;;5051660;28;20746;-69
2022/09/24 14:36:39;;;;;;;1999.90;999.90;;;;;;;;;;5051255;28;20232;-69
2022/09/24 14:39:25;;;;;;;1999.90;999.90;;;;;;;;;;5039852;28;20221;-69
2022/09/24 14:42:13;;;;;;;1999.90;999.90;;;;;;;;;;5048039;28;20401;-69
2022/09/24 14:44:59;;;;;;;1999.90;999.90;;;;;;;;;;5051538;28;20683;-68
2022/09/24 14:47:44;;;;;;;1999.90;999.90;;;;;;;;;;5051808;28;20281;-68
2022/09/24 14:50:36;;;;;;;1999.90;999.90;;;;;;;;;;5050241;28;20208;-68
2022/09/24 14:53:24;;;;;;;1999.90;999.90;;;;;;;;;;5052244;28;20267;-67
2022/09/24 14:56:18;;;;;;;1999.90;999.90;;;;;;;;;;5042464;28;20233;-67
2022/09/24 14:59:12;;;;;;;1999.90;999.90;;;;;;;;;;5035983;28;20407;-67
2022/09/24 15:02:10;;;;;;;1999.90;999.90;;;;;;;;;;5055832;28;20204;-67
2022/09/24 15:04:56;;;;;;;1999.90;999.90;;;;;;;;;;5049264;28;20327;-67
2022/09/24 15:07:41;;;;;;;1999.90;999.90;;;;;;;;;;5043874;28;20220;-68
2022/09/24 15:10:26;;;;;;;1999.90;999.90;;;;;;;;;;5033561;28;20226;-67
2022/09/24 15:13:14;;;;;;;1999.90;999.90;;;;;;;;;;5032727;28;20214;-67
2022/09/24 15:16:05;;;;;;;1999.90;999.90;;;;;;;;;;5047568;28;20240;-66
2022/09/24 15:18:57;;;;;;;1999.90;999.90;;;;;;;;;;5050875;28;20271;-66
2022/09/24 15:21:42;;;;;;;1999.90;999.90;;;;;;;;;;5033161;28;20217;-66
2022/09/24 15:24:28;;;;;;;1999.90;999.90;;;;;;;;;;5032610;28;20303;-66
2022/09/24 15:27:16;;;;;;;1999.90;999.90;;;;;;;;;;5032945;28;20232;-67
2022/09/24 15:30:01;;;;;;;1999.90;999.90;;;;;;;;;;5033047;28;20213;-68
2022/09/24 15:32:48;;;;;;;1999.90;999.90;;;;;;;;;;5032681;28;20201;-66
2022/09/24 15:35:33;;;;;;;1999.90;999.90;;;;;;;;;;5034321;28;20229;-66
2022/09/24 15:38:19;;;;;;;1999.90;999.90;;;;;;;;;;5040892;28;20208;-65
2022/09/24 15:41:07;;;;;;;1999.90;999.90;;;;;;;;;;5045748;28;20247;-66
2022/09/24 15:43:56;;;;;;;1999.90;999.90;;;;;;;;;;5032568;28;20244;-66
2022/09/24 15:46:41;;;;;;;1999.90;999.90;;;;;;;;;;5032539;28;20324;-67
2022/09/24 15:49:28;;;;;;;1999.90;999.90;;;;;;;;;;5031738;28;20514;-68
2022/09/24 15:52:15;;;;;;;1999.90;999.90;;;;;;;;;;5049494;28;20213;-67
2022/09/24 15:55:01;;;;;;;1999.90;999.90;;;;;;;;;;5051705;28;20694;-67
2022/09/24 15:57:46;;;;;;;1999.90;999.90;;;;;;;;;;5047047;28;20578;-67
2022/09/24 16:00:32;;;;;;;1999.90;999.90;;;;;;;;;;5066328;28;20215;-68
2022/09/24 16:03:21;;;;;;;1999.90;999.90;;;;;;;;;;5072194;28;20732;-67
2022/09/24 16:06:10;;;;;;;1999.90;999.90;;;;;;;;;;5067091;28;20335;-67
2022/09/24 16:08:54;;;;;;;1999.90;999.90;;;;;;;;;;5047306;28;20404;-67
2022/09/24 16:11:39;;;;;;;1999.90;999.90;;;;;;;;;;5051720;28;20319;-66
2022/09/24 16:14:24;;;;;;;1999.90;999.90;;;;;;;;;;5044413;28;20213;-67
2022/09/24 16:17:11;;;;;;;1999.90;999.90;;;;;;;;;;5051523;28;20247;-66
2022/09/24 16:19:56;;;;;;;1999.90;999.90;;;;;;;;;;5052147;28;20250;-66
2022/09/24 16:22:42;;;;;;;1999.90;999.90;;;;;;;;;;5051152;28;20227;-67
2022/09/24 16:25:27;;;;;;;1999.90;999.90;;;;;;;;;;5049270;28;20336;-67
2022/09/24 16:28:12;;;;;;;1999.90;999.90;;;;;;;;;;5046386;28;20212;-67
2022/09/24 16:30:57;;;;;;;1999.90;999.90;;;;;;;;;;5052018;28;20678;-67
2022/09/24 16:33:42;;;;;;;1999.90;999.90;;;;;;;;;;5051665;28;20266;-68
2022/09/24 16:36:27;;;;;;;1999.90;999.90;;;;;;;;;;5054060;28;20792;-67
2022/09/24 16:39:14;;;;;;;1999.90;999.90;;;;;;;;;;5048427;28;20592;-68
2022/09/24 16:42:00;;;;;;;1999.90;999.90;;;;;;;;;;5051358;28;20212;-67
2022/09/24 16:44:44;;;;;;;1999.90;999.90;;;;;;;;;;5041072;28;21051;-67
2022/09/24 16:47:29;;;;;;;1999.90;999.90;;;;;;;;;;5039920;28;20303;-66
2022/09/24 16:50:14;;;;;;;1999.90;999.90;;;;;;;;;;5031542;28;20779;-67
2022/09/24 16:52:59;;;;;;;1999.90;999.90;;;;;;;;;;5042244;28;20208;-67
2022/09/24 16:55:46;;;;;;;1999.90;999.90;;;;;;;;;;5039378;28;20232;-67
2022/09/24 16:58:31;;;;;;;1999.90;999.90;;;;;;;;;;5040192;28;20263;-67
2022/09/24 17:01:17;;;;;;;1999.90;999.90;;;;;;;;;;5046802;28;20215;-67
2022/09/24 17:04:02;;;;;;;1999.90;999.90;;;;;;;;;;5045429;28;20253;-67
2022/09/24 17:06:47;;;;;;;1999.90;999.90;;;;;;;;;;5051583;28;20813;-67